Valtellina — ICKF — position and weather

sailwx.info

Track history (hours):
 
Tides and Currents Weather Stations Pressure Air Temp Water Temp Dewpoint Dewpoint Depression Visibility Wind Speed Wind Dir Waves Ship Positions

Valtellina

Last reported at 2016-Dec-09 05:30 UTC. Time now 2016-Dec-09 05:52 UTC.
Position N 45°34' E 013°44'.

Length 184 m; draft 7.5 m.

Type: Ship. MMSI: 247243900.

Date/timePositionNaut miles runAvg speedWind from/ knotsBaromVisibWave heightAir tempDewpointWater temp
2016-Dec-09 05:30N 45°34' E 013°44'0 0.0
2016-Dec-09 04:27N 45°34' E 013°44'0 0.0
2016-Dec-09 03:30N 45°34' E 013°44'0 0.0
2016-Dec-09 02:33N 45°34' E 013°44'0 0.0
2016-Dec-09 01:33N 45°34' E 013°44'0 0.0
2016-Dec-09 00:24N 45°34' E 013°44'0 0.0
2016-Dec-08 23:33N 45°34' E 013°44'0 0.0
2016-Dec-08 22:33N 45°34' E 013°44'0 0.0
2016-Dec-08 21:33N 45°34' E 013°44'0 0.0
2016-Dec-08 20:33N 45°34' E 013°44'0 0.0
2016-Dec-08 19:33N 45°34' E 013°44'0 0.0
2016-Dec-08 18:33N 45°34' E 013°44'0 0.0
2016-Dec-08 17:30N 45°34' E 013°44'0 0.0
2016-Dec-08 16:33N 45°34' E 013°44'0 0.0
2016-Dec-08 15:33N 45°34' E 013°44'0 0.0
2016-Dec-08 14:33N 45°34' E 013°44'0 0.0
2016-Dec-08 13:33N 45°34' E 013°44'0 0.0
2016-Dec-08 12:33N 45°34' E 013°44'0 0.0
2016-Dec-08 11:30N 45°34' E 013°44'0 0.0
2016-Dec-08 10:33N 45°34' E 013°44'0 0.0
2016-Dec-08 09:33N 45°34' E 013°44'0 0.0
2016-Dec-08 08:33N 45°34' E 013°44'0 0.0
2016-Dec-08 07:33N 45°34' E 013°44'0 0.0
2016-Dec-08 06:33N 45°34' E 013°44'0 0.0
2016-Dec-08 05:30N 45°34' E 013°44'0 0.0
2016-Dec-08 04:33N 45°34' E 013°44'0 0.0
2016-Dec-08 03:33N 45°34' E 013°44'0 0.0
2016-Dec-08 02:30N 45°34' E 013°44'0 0.0
2016-Dec-08 01:33N 45°34' E 013°44'0 0.0
2016-Dec-08 00:33N 45°34' E 013°44'0 0.0
2016-Dec-07 23:24N 45°34' E 013°44'0 0.0
2016-Dec-07 22:33N 45°34' E 013°44'0 0.0
2016-Dec-07 21:33N 45°34' E 013°44'0 0.0
2016-Dec-07 20:33N 45°34' E 013°44'0 0.0
2016-Dec-07 19:33N 45°34' E 013°44'0 0.0
2016-Dec-07 18:27N 45°34' E 013°44'0 0.0
2016-Dec-07 17:33N 45°34' E 013°44'0 0.0
2016-Dec-07 16:33N 45°34' E 013°44'0 0.0
2016-Dec-07 15:18N 45°34' E 013°44'0 0.4
2016-Dec-07 14:33N 45°33' E 013°44'4 3.7
2016-Dec-07 13:34N 45°35' E 013°39'0 0.2
2016-Dec-07 12:34N 45°35' E 013°38'2 1.6
2016-Dec-07 11:33N 45°35' E 013°36'3 3.1
2016-Dec-07 10:34N 45°35' E 013°32'9 9.4
2016-Dec-07 09:34N 45°30' E 013°20'1010.1
2016-Dec-07 08:33N 45°22' E 013°11'1211.9
2016-Dec-07 07:33N 45°10' E 013°14'1211.7
2016-Dec-07 06:34N 44°59' E 013°19'1212.0
2016-Dec-07 05:33N 44°49' E 013°28'1211.9
2016-Dec-07 04:34N 44°39' E 013°37'1212.0
2016-Dec-07 03:33N 44°29' E 013°47'1212.0
2016-Dec-07 02:33N 44°19' E 013°56'1212.1
2016-Dec-07 01:33N 44°09' E 014°05'399 9.5
2016-Dec-05 07:33N 37°42' E 016°12'1111.6
2016-Dec-05 06:34N 37°31' E 016°08'8511.4
2016-Dec-04 23:05N 36°38' E 014°45'712.3
2016-Dec-04 22:31N 36°40' E 014°36'1212.1
2016-Dec-04 21:34N 36°44' E 014°23'1211.8
2016-Dec-04 20:33N 36°49' E 014°10'1212.0
2016-Dec-04 19:34N 36°54' E 013°56'1212.1
2016-Dec-04 18:33N 36°60' E 013°42'25012.2
2016-Dec-03 22:05N 38°38' E 008°51'712.4
2016-Dec-03 21:33N 38°40' E 008°43'8 0.6
2016-Dec-03 08:23N 38°42' E 008°33'9 2.9
2016-Dec-03 05:16N 38°46' E 008°44'1013.2
2016-Dec-03 04:33N 38°51' E 008°54'1212.6
2016-Dec-03 03:33N 38°60' E 009°05'6 5.7
2016-Dec-03 02:33N 39°05' E 009°02'0 0.0
2016-Dec-03 01:33N 39°05' E 009°02'0 0.0
2016-Dec-03 00:33N 39°05' E 009°02'0 0.0
2016-Dec-02 23:33N 39°05' E 009°02'0 0.0
2016-Dec-02 22:33N 39°05' E 009°02'0 0.0
2016-Dec-02 21:33N 39°05' E 009°02'0 0.0
2016-Dec-02 20:33N 39°05' E 009°02'0 0.0
2016-Dec-02 19:33N 39°05' E 009°02'0 0.0
2016-Dec-02 18:33N 39°05' E 009°02'0 0.0
2016-Dec-02 17:33N 39°05' E 009°02'0 0.0
2016-Dec-02 16:30N 39°05' E 009°02'0 0.0
2016-Dec-02 15:33N 39°05' E 009°02'0 0.0
2016-Dec-02 14:33N 39°05' E 009°02'0 0.0
2016-Dec-02 13:33N 39°05' E 009°02'0 0.0
2016-Dec-02 12:33N 39°05' E 009°02'0 0.0
2016-Dec-02 11:33N 39°05' E 009°02'0 0.0
2016-Dec-02 10:33N 39°05' E 009°02'0 0.0
2016-Dec-02 09:33N 39°05' E 009°02'0 0.0
2016-Dec-02 08:33N 39°05' E 009°02'0 0.0
2016-Dec-02 07:33N 39°05' E 009°02'0 0.0
2016-Dec-02 06:33N 39°05' E 009°02'0 0.0
2016-Dec-02 05:33N 39°05' E 009°02'0 0.0
2016-Dec-02 04:33N 39°05' E 009°02'0 0.0
2016-Dec-02 03:33N 39°05' E 009°02'0 0.0
2016-Dec-02 02:33N 39°05' E 009°02'0 0.0
2016-Dec-02 01:33N 39°05' E 009°02'0 0.0
2016-Dec-02 00:33N 39°05' E 009°02'0 0.2
2016-Dec-01 23:32N 39°05' E 009°02'2 2.1
2016-Dec-01 22:31N 39°04' E 009°04'0 0.0
2016-Dec-01 21:31N 39°04' E 009°04'0 0.0
2016-Dec-01 20:31N 39°04' E 009°04'0 0.0
2016-Dec-01 19:31N 39°04' E 009°04'0 0.0
2016-Dec-01 18:31N 39°04' E 009°04'0 0.0
2016-Dec-01 17:31N 39°04' E 009°04'0 0.0
2016-Dec-01 16:28N 39°04' E 009°04'0 0.0
2016-Dec-01 15:31N 39°04' E 009°04'0 0.1
2016-Dec-01 14:31N 39°04' E 009°04'0 0.1
2016-Dec-01 13:31N 39°04' E 009°04'0 0.1
2016-Dec-01 12:31N 39°04' E 009°04'0 0.1
2016-Dec-01 11:31N 39°04' E 009°04'0 0.0
2016-Dec-01 10:31N 39°04' E 009°04'0 0.0
2016-Dec-01 09:31N 39°04' E 009°04'0 0.0
2016-Dec-01 08:31N 39°04' E 009°04'0 0.0
2016-Dec-01 07:31N 39°04' E 009°04'0 0.0
2016-Dec-01 06:25N 39°04' E 009°04'0 0.0
2016-Dec-01 05:31N 39°04' E 009°04'0 0.0
2016-Dec-01 04:31N 39°04' E 009°04'0 0.0
2016-Dec-01 03:31N 39°04' E 009°04'0 0.0
2016-Dec-01 02:31N 39°04' E 009°04'0 0.0
2016-Dec-01 01:31N 39°04' E 009°04'0 0.0
2016-Dec-01 00:31N 39°04' E 009°04'0 0.1
2016-Nov-30 23:31N 39°04' E 009°04'0 0.1
2016-Nov-30 22:31N 39°04' E 009°04'0 0.0
2016-Nov-30 21:31N 39°04' E 009°04'0 0.0
2016-Nov-30 20:28N 39°04' E 009°04'0 0.0
2016-Nov-30 19:31N 39°04' E 009°04'0 0.0
2016-Nov-30 18:31N 39°04' E 009°04'0 0.0
2016-Nov-30 17:31N 39°04' E 009°04'0 0.2
2016-Nov-30 16:31N 39°04' E 009°04'5 5.4
2016-Nov-30 15:33N 39°01' E 009°09'1413.5
2016-Nov-30 14:33N 38°54' E 009°24'22912.6
2016-Nov-29 20:26N 37°01' E 013°37'1112.9
2016-Nov-29 19:33N 36°56' E 013°50'1313.1
2016-Nov-29 18:33N 36°51' E 014°05'1313.4
2016-Nov-29 17:33N 36°45' E 014°20'1313.4
2016-Nov-29 16:33N 36°40' E 014°35'1313.2
2016-Nov-29 15:33N 36°37' E 014°51'7412.3
2016-Nov-29 09:33N 37°23' E 016°03'1413.9
2016-Nov-29 08:34N 37°34' E 016°14'4314.0
2016-Nov-29 05:31N 38°07' E 016°48'  
Track history (hours):
 
Tides and Currents Weather Stations Pressure Air Temp Water Temp Dewpoint Dewpoint Depression Visibility Wind Speed Wind Dir Waves Ship Positions

Valtellina

Last reported at 2016-Dec-09 05:30 UTC. Time now 2016-Dec-09 05:52 UTC.
Position N 45°34' E 013°44'.

Length 184 m; draft 7.5 m.

Type: Ship. MMSI: 247243900.

Date/timePositionNaut miles runAvg speedWind from/ knotsBaromVisibWave heightAir tempDewpointWater temp
2016-Dec-09 05:30N 45°34' E 013°44'0 0.0
2016-Dec-09 04:27N 45°34' E 013°44'0 0.0
2016-Dec-09 03:30N 45°34' E 013°44'0 0.0
2016-Dec-09 02:33N 45°34' E 013°44'0 0.0
2016-Dec-09 01:33N 45°34' E 013°44'0 0.0
2016-Dec-09 00:24N 45°34' E 013°44'0 0.0
2016-Dec-08 23:33N 45°34' E 013°44'0 0.0
2016-Dec-08 22:33N 45°34' E 013°44'0 0.0
2016-Dec-08 21:33N 45°34' E 013°44'0 0.0
2016-Dec-08 20:33N 45°34' E 013°44'0 0.0
2016-Dec-08 19:33N 45°34' E 013°44'0 0.0
2016-Dec-08 18:33N 45°34' E 013°44'0 0.0
2016-Dec-08 17:30N 45°34' E 013°44'0 0.0
2016-Dec-08 16:33N 45°34' E 013°44'0 0.0
2016-Dec-08 15:33N 45°34' E 013°44'0 0.0
2016-Dec-08 14:33N 45°34' E 013°44'0 0.0
2016-Dec-08 13:33N 45°34' E 013°44'0 0.0
2016-Dec-08 12:33N 45°34' E 013°44'0 0.0
2016-Dec-08 11:30N 45°34' E 013°44'0 0.0
2016-Dec-08 10:33N 45°34' E 013°44'0 0.0
2016-Dec-08 09:33N 45°34' E 013°44'0 0.0
2016-Dec-08 08:33N 45°34' E 013°44'0 0.0
2016-Dec-08 07:33N 45°34' E 013°44'0 0.0
2016-Dec-08 06:33N 45°34' E 013°44'0 0.0
2016-Dec-08 05:30N 45°34' E 013°44'0 0.0
2016-Dec-08 04:33N 45°34' E 013°44'0 0.0
2016-Dec-08 03:33N 45°34' E 013°44'0 0.0
2016-Dec-08 02:30N 45°34' E 013°44'0 0.0
2016-Dec-08 01:33N 45°34' E 013°44'0 0.0
2016-Dec-08 00:33N 45°34' E 013°44'0 0.0
2016-Dec-07 23:24N 45°34' E 013°44'0 0.0
2016-Dec-07 22:33N 45°34' E 013°44'0 0.0
2016-Dec-07 21:33N 45°34' E 013°44'0 0.0
2016-Dec-07 20:33N 45°34' E 013°44'0 0.0
2016-Dec-07 19:33N 45°34' E 013°44'0 0.0
2016-Dec-07 18:27N 45°34' E 013°44'0 0.0
2016-Dec-07 17:33N 45°34' E 013°44'0 0.0
2016-Dec-07 16:33N 45°34' E 013°44'0 0.0
2016-Dec-07 15:18N 45°34' E 013°44'0 0.4
2016-Dec-07 14:33N 45°33' E 013°44'4 3.7
2016-Dec-07 13:34N 45°35' E 013°39'0 0.2
2016-Dec-07 12:34N 45°35' E 013°38'2 1.6
2016-Dec-07 11:33N 45°35' E 013°36'3 3.1
2016-Dec-07 10:34N 45°35' E 013°32'9 9.4
2016-Dec-07 09:34N 45°30' E 013°20'1010.1
2016-Dec-07 08:33N 45°22' E 013°11'1211.9
2016-Dec-07 07:33N 45°10' E 013°14'1211.7
2016-Dec-07 06:34N 44°59' E 013°19'1212.0
2016-Dec-07 05:33N 44°49' E 013°28'1211.9
2016-Dec-07 04:34N 44°39' E 013°37'1212.0
2016-Dec-07 03:33N 44°29' E 013°47'1212.0
2016-Dec-07 02:33N 44°19' E 013°56'1212.1
2016-Dec-07 01:33N 44°09' E 014°05'399 9.5
2016-Dec-05 07:33N 37°42' E 016°12'1111.6
2016-Dec-05 06:34N 37°31' E 016°08'8511.4
2016-Dec-04 23:05N 36°38' E 014°45'712.3
2016-Dec-04 22:31N 36°40' E 014°36'1212.1
2016-Dec-04 21:34N 36°44' E 014°23'1211.8
2016-Dec-04 20:33N 36°49' E 014°10'1212.0
2016-Dec-04 19:34N 36°54' E 013°56'1212.1
2016-Dec-04 18:33N 36°60' E 013°42'25012.2
2016-Dec-03 22:05N 38°38' E 008°51'712.4
2016-Dec-03 21:33N 38°40' E 008°43'8 0.6
2016-Dec-03 08:23N 38°42' E 008°33'9 2.9
2016-Dec-03 05:16N 38°46' E 008°44'1013.2
2016-Dec-03 04:33N 38°51' E 008°54'1212.6
2016-Dec-03 03:33N 38°60' E 009°05'6 5.7
2016-Dec-03 02:33N 39°05' E 009°02'0 0.0
2016-Dec-03 01:33N 39°05' E 009°02'0 0.0
2016-Dec-03 00:33N 39°05' E 009°02'0 0.0
2016-Dec-02 23:33N 39°05' E 009°02'0 0.0
2016-Dec-02 22:33N 39°05' E 009°02'0 0.0
2016-Dec-02 21:33N 39°05' E 009°02'0 0.0
2016-Dec-02 20:33N 39°05' E 009°02'0 0.0
2016-Dec-02 19:33N 39°05' E 009°02'0 0.0
2016-Dec-02 18:33N 39°05' E 009°02'0 0.0
2016-Dec-02 17:33N 39°05' E 009°02'0 0.0
2016-Dec-02 16:30N 39°05' E 009°02'0 0.0
2016-Dec-02 15:33N 39°05' E 009°02'0 0.0
2016-Dec-02 14:33N 39°05' E 009°02'0 0.0
2016-Dec-02 13:33N 39°05' E 009°02'0 0.0
2016-Dec-02 12:33N 39°05' E 009°02'0 0.0
2016-Dec-02 11:33N 39°05' E 009°02'0 0.0
2016-Dec-02 10:33N 39°05' E 009°02'0 0.0
2016-Dec-02 09:33N 39°05' E 009°02'0 0.0
2016-Dec-02 08:33N 39°05' E 009°02'0 0.0
2016-Dec-02 07:33N 39°05' E 009°02'0 0.0
2016-Dec-02 06:33N 39°05' E 009°02'0 0.0
2016-Dec-02 05:33N 39°05' E 009°02'0 0.0
2016-Dec-02 04:33N 39°05' E 009°02'0 0.0
2016-Dec-02 03:33N 39°05' E 009°02'0 0.0
2016-Dec-02 02:33N 39°05' E 009°02'0 0.0
2016-Dec-02 01:33N 39°05' E 009°02'0 0.0
2016-Dec-02 00:33N 39°05' E 009°02'0 0.2
2016-Dec-01 23:32N 39°05' E 009°02'2 2.1
2016-Dec-01 22:31N 39°04' E 009°04'0 0.0
2016-Dec-01 21:31N 39°04' E 009°04'0 0.0
2016-Dec-01 20:31N 39°04' E 009°04'0 0.0
2016-Dec-01 19:31N 39°04' E 009°04'0 0.0
2016-Dec-01 18:31N 39°04' E 009°04'0 0.0
2016-Dec-01 17:31N 39°04' E 009°04'0 0.0
2016-Dec-01 16:28N 39°04' E 009°04'0 0.0
2016-Dec-01 15:31N 39°04' E 009°04'0 0.1
2016-Dec-01 14:31N 39°04' E 009°04'0 0.1
2016-Dec-01 13:31N 39°04' E 009°04'0 0.1
2016-Dec-01 12:31N 39°04' E 009°04'0 0.1
2016-Dec-01 11:31N 39°04' E 009°04'0 0.0
2016-Dec-01 10:31N 39°04' E 009°04'0 0.0
2016-Dec-01 09:31N 39°04' E 009°04'0 0.0
2016-Dec-01 08:31N 39°04' E 009°04'0 0.0
2016-Dec-01 07:31N 39°04' E 009°04'0 0.0
2016-Dec-01 06:25N 39°04' E 009°04'0 0.0
2016-Dec-01 05:31N 39°04' E 009°04'0 0.0
2016-Dec-01 04:31N 39°04' E 009°04'0 0.0
2016-Dec-01 03:31N 39°04' E 009°04'0 0.0
2016-Dec-01 02:31N 39°04' E 009°04'0 0.0
2016-Dec-01 01:31N 39°04' E 009°04'0 0.0
2016-Dec-01 00:31N 39°04' E 009°04'0 0.1
2016-Nov-30 23:31N 39°04' E 009°04'0 0.1
2016-Nov-30 22:31N 39°04' E 009°04'0 0.0
2016-Nov-30 21:31N 39°04' E 009°04'0 0.0
2016-Nov-30 20:28N 39°04' E 009°04'0 0.0
2016-Nov-30 19:31N 39°04' E 009°04'0 0.0
2016-Nov-30 18:31N 39°04' E 009°04'0 0.0
2016-Nov-30 17:31N 39°04' E 009°04'0 0.2
2016-Nov-30 16:31N 39°04' E 009°04'5 5.4
2016-Nov-30 15:33N 39°01' E 009°09'1413.5
2016-Nov-30 14:33N 38°54' E 009°24'22912.6
2016-Nov-29 20:26N 37°01' E 013°37'1112.9
2016-Nov-29 19:33N 36°56' E 013°50'1313.1
2016-Nov-29 18:33N 36°51' E 014°05'1313.4
2016-Nov-29 17:33N 36°45' E 014°20'1313.4
2016-Nov-29 16:33N 36°40' E 014°35'1313.2
2016-Nov-29 15:33N 36°37' E 014°51'7412.3
2016-Nov-29 09:33N 37°23' E 016°03'1413.9
2016-Nov-29 08:34N 37°34' E 016°14'4314.0
2016-Nov-29 05:31N 38°07' E 016°48'  

Dump ship's entire track history